Accueil
METAR-TAF:

METAR-TAF

Aéroports :

Aéroport international du Cap

Le Cap, Afrique du Sud

latitude: 33-59S, longitude: 018-36E, altitude: 42 m

Observation

Le bulletin a été fait il y a 1 heure et 5 minutes, à 17:00 UTC
Vent 8 kt de nord/nord-ouest
Température 14°C
Humidité 88%
Pression 1022 hPa
Visibilité 10 km ou plus
Quelques nuages à une hauteur de 2000 ft

METAR: FACT 191700Z 34008KT 9999 FEW020 14/12 Q1022 NOSIG

Heure: 20:05 (18:05 UTC)

Prévision

Le bulletin a été fait il y a 2 heures et 5 minutes, à 16:00 UTC
Prévision valable du 19 à 18 UTC au 20 à 24 UTC
Vent 8 kt de nord
Visibilité 10 km ou plus
Nuages épars à une hauteur de 2500 ft
A partir de 20 à 0800 UTC
Vent 10 kt de nord
Visibilité 10 km ou plus
pas de nuages en-dessous de 1500 mètres et pas de cumulonimbus.

TAF: FACT 191600Z 1918/2024 36008KT 9999 SCT025 FM200800 36010KT CAVOK TX18/2012Z TN10/2006Z

Observations et prévisions météorologiques de plus de 4000 aéroports (messages METAR et TAF).

Les stations disponibles sont représentées par des disques jaunes et rouges sur la carte.

Passer la souris dessus pour voir le nom de la station.

Cliquer dessus pour voir les observations et prévisions météorologiques.

Pour changer de carte: cliquez sur les boutons verts avec une croix noire pour zoomer, sur le bouton vert avec un tiret pour effectuer un zoom arrière, ou sur les flèches vertes pour les cartes adjacentes.


METAR-TAF: